Flight Track Log - Related Links

Times and Time Zones

All times are in EDT time to prevent confusion due to time zone crossing. See the N3840U flight status page for this flight to view local times or setup timezone preferences in your user account.

Time Position Orientation Groundspeed Altitude Reporting Facility
EDT Latitude Longitude Course Direction KTS MPH feet Rate Location/Type
Sun 12:43:00 PM 30.6773 -86.4333 North  Level FlightAware Approximate
Sun 12:44:00 PM 30.7171 -86.4333 North  Level FlightAware Approximate
Sun 12:45:00 PM 30.7569 -86.4307 North  Level FlightAware Approximate
Sun 12:46:00 PM 30.7965 -86.4263 North  Level FlightAware Approximate
Sun 12:47:00 PM 30.8362 -86.4219 North  Level FlightAware Approximate
Sun 12:48:00 PM 30.8759 -86.4175 North  Level FlightAware Approximate
Sun 12:48:39 PM 30.7564 -86.4144 North 123 142 8,600  Level Jacksonville Center
Sun 12:49:00 PM 30.9155 -86.4131 North  Level FlightAware Approximate
Sun 12:50:00 PM 30.9552 -86.4087 North  Level FlightAware Approximate
Sun 12:50:03 PM 30.8047 -86.4092 North 127 146 9,100  Level Jacksonville Center
Sun 12:51:00 PM 30.9948 -86.4043 North  Level FlightAware Approximate
Sun 12:51:04 PM 30.8467 -86.4033 North 153 176 9,100  Level Jacksonville Center
Sun 12:52:00 PM 31.0345 -86.3999 North  Level FlightAware Approximate
Sun 12:52:05 PM 30.8883 -86.3978 North 160 184 9,100  Level Jacksonville Center
Sun 12:53:00 PM 31.0741 -86.3951 North  Level FlightAware Approximate
Sun 12:53:05 PM 30.9367 -86.3947 North 160 184 9,100  Level Jacksonville Center
Sun 12:53:54 PM 30.9722 -86.3886 North 158 182 9,100  Level Jacksonville Center
Sun 12:54:48 PM 31.0119 -86.3853 North 158 182 9,100  Level Jacksonville Center
Sun 12:55:49 PM 31.0581 -86.3822 North 159 183 9,100  Level Jacksonville Center
Sun 12:56:49 PM 31.0997 -86.3789 North 158 182 9,100  Level Jacksonville Center
Sun 12:57:44 PM 31.1375 -86.3756 North 159 183 9,100  Level Jacksonville Center
Sun 12:58:45 PM 31.1836 -86.3700 North 159 183 9,100  Level Jacksonville Center
Sun 12:59:45 PM 31.2294 -86.3667 North 159 183 9,100  Level Jacksonville Center
Sun 01:00:46 PM 31.2714 -86.3633 North 160 184 9,100  Level Jacksonville Center
Sun 01:01:46 PM 31.3197 -86.3578 North 159 183 9,100  Level Jacksonville Center
Sun 01:02:47 PM 31.3614 -86.3544 North 158 182 9,100  Level Jacksonville Center
Sun 01:03:48 PM 31.4075 -86.3489 North 158 182 9,100  Level Jacksonville Center
Sun 01:04:48 PM 31.4494 -86.3433 North 159 183 9,100  Level Jacksonville Center
Sun 01:05:49 PM 31.4956 -86.3400 North 156 180 9,100  Level Jacksonville Center
Sun 01:06:49 PM 31.5353 -86.3367 North 152 175 9,100  Level Jacksonville Center
Sun 01:07:50 PM 31.5792 -86.3333 North 149 171 9,100  Level Jacksonville Center
Sun 01:08:51 PM 31.6189 -86.3275 North 151 174 9,100  Level Jacksonville Center
Sun 01:09:51 PM 31.6628 -86.3267 North 151 174 9,100  Level Jacksonville Center
Sun 01:10:52 PM 31.7069 -86.3186 North 150 173 9,100  Level Jacksonville Center
Sun 01:11:52 PM 31.7486 -86.3153 North 153 176 9,100 Level Jacksonville Center
Sun 01:13:00 PM 31.7936 -86.3102 North  Level FlightAware Approximate
Sun 01:20:00 PM 32.0714 -86.2817 North  Level FlightAware Approximate
Sun 01:21:00 PM 32.1111 -86.2778 North  Level FlightAware Approximate
Sun 01:22:00 PM 32.1508 -86.2739 North  Level FlightAware Approximate
Sun 01:23:00 PM 32.1905 -86.2700 North  Level FlightAware Approximate
Sun 01:24:00 PM 32.2302 -86.2661 North  Level FlightAware Approximate
Sun 01:25:00 PM 32.2699 -86.2622 North  Level FlightAware Approximate
Sun 01:26:00 PM 32.3096 -86.2583 North  Level FlightAware Approximate
Sun 01:27:00 PM 32.3493 -86.2544 North  Level FlightAware Approximate
Sun 01:28:00 PM 32.3890 -86.2505 North  Level FlightAware Approximate
Sun 01:29:00 PM 32.4287 -86.2466 North  Level FlightAware Approximate
Sun 01:30:00 PM 32.4684 -86.2427 North  Level FlightAware Approximate
Sun 01:31:00 PM 32.5081 -86.2388 North  Level FlightAware Approximate
Sun 01:32:00 PM 32.5478 -86.2349 North  Level FlightAware Approximate
Sun 01:33:00 PM 32.5875 -86.2309 North  Level FlightAware Approximate
Sun 01:34:00 PM 32.6272 -86.2270 North  Level FlightAware Approximate
Sun 01:35:00 PM 32.6669 -86.2231 North  Level FlightAware Approximate
Sun 01:36:00 PM 32.7066 -86.2192 North  Level FlightAware Approximate
Sun 01:37:00 PM 32.7463 -86.2152 North  Level FlightAware Approximate
Sun 01:38:00 PM 32.7860 -86.2113 North  Level FlightAware Approximate
Sun 01:39:00 PM 32.9111 -86.2039 North 155 178 9,200  Level Atlanta Center
Sun 01:39:00 PM 32.8257 -86.2073 North  Level FlightAware Approximate
Sun 01:39:37 PM 32.9383 -86.1997 North 153 176 9,200  Level Atlanta Center
Sun 01:40:00 PM 32.8654 -86.2034 North  Level FlightAware Approximate
Sun 01:40:37 PM 32.9803 -86.1956 North 157 181 9,000  Level Atlanta Center
Sun 01:41:00 PM 32.9051 -86.1994 North  Level FlightAware Approximate
Sun 01:41:38 PM 33.0261 -86.1894 North 157 181 8,900  Level Atlanta Center
Sun 01:42:00 PM 32.9448 -86.1955 North  Level FlightAware Approximate
Sun 01:42:39 PM 33.0742 -86.1856 North 167 192 8,500  Level Atlanta Center
Sun 01:43:00 PM 32.9845 -86.1915 North  Level FlightAware Approximate
Sun 01:43:39 PM 33.1222 -86.1794 North 174 200 8,000  Level Atlanta Center
Sun 01:44:00 PM 33.0242 -86.1876 North  Level FlightAware Approximate
Sun 01:44:40 PM 33.1706 -86.1756 North 176 203 7,500  Level Atlanta Center
Sun 01:45:41 PM 33.2206 -86.1694 North 178 205 6,900 -496 Descending Atlanta Center
Sun 01:46:41 PM 33.2708 -86.1631 North 180 207 6,500 -545 Descending Atlanta Center
Sun 01:47:42 PM 33.3211 -86.1594 North 182 209 5,800 -639 Descending Atlanta Center
Sun 01:48:43 PM 33.3733 -86.1531 North 187 215 5,200 -545 Descending Atlanta Center
Sun 01:49:43 PM 33.4236 -86.1469 North 182 209 4,700 -496 Descending Atlanta Center
Sun 01:50:44 PM 33.4736 -86.1431 North 182 209 4,200 -298 Descending Atlanta Center
Sun 01:51:44 PM 33.5217 -86.1369 North 174 200 4,100 -50 Descending Atlanta Center
Sun 01:52:45 PM 33.5678 -86.1356 North 154 177 4,100 -246 Level Atlanta Center
Sun 01:53:46 PM 33.6136 -86.1292 North 158 182 3,600 -496 Descending Atlanta Center
Sun 01:54:46 PM 33.6619 -86.1228 North 176 203 3,100 -248 Descending Atlanta Center
Sun 01:55:47 PM 33.7078 -86.1214 North 165 190 3,100  Level Atlanta Center
Sun 01:56:48 PM 33.7456 -86.1150 North 154 177 3,100  Level Atlanta Center
Sun 01:57:48 PM 33.7456 -86.1150 180° South 154 177 3,100  Level Atlanta Center
Sun 02:00:00 PM 33.7930 -86.1062 North  Level FlightAware Approximate
Sun 02:07:00 PM 33.9667 -86.0833 North  Level FlightAware Approximate

Login

Don't have an account? Register now (free) for customized features, flight alerts, and more!